Time;durP1;ratioP1;P1;durP2;ratioP2;P2;SDS_P1;SDS_P2;PMS_P1;PMS_P2;Temp;Humidity;BMP_temperature;BMP_pressure;BME280_temperature;BME280_humidity;BME280_pressure;Samples;Min_cycle;Max_cycle;Signal;HPM_P1;HPM_P2
2024/01/17 00:00:35;;;;;;;8.43;4.70;;;4.40;99.90;;;;;;5032508;28;20139;-76
2024/01/17 00:03:02;;;;;;;8.73;5.10;;;4.40;99.90;;;;;;5022545;28;20045;-73
2024/01/17 00:05:27;;;;;;;8.93;5.43;;;4.30;99.90;;;;;;5053451;28;20075;-76
2024/01/17 00:07:53;;;;;;;6.57;4.47;;;4.30;99.90;;;;;;5036780;28;20045;-75
2024/01/17 00:10:19;;;;;;;6.38;4.68;;;4.30;99.90;;;;;;5068970;28;20055;-75
2024/01/17 00:12:45;;;;;;;8.25;4.85;;;4.30;99.90;;;;;;5052525;28;20132;-75
2024/01/17 00:15:10;;;;;;;7.05;4.47;;;4.20;99.90;;;;;;5052597;28;20040;-74
2024/01/17 00:17:36;;;;;;;7.93;4.25;;;4.20;99.90;;;;;;5053599;28;20085;-77
2024/01/17 00:20:02;;;;;;;7.53;5.00;;;4.40;99.90;;;;;;5068389;28;20060;-77
2024/01/17 00:22:28;;;;;;;7.13;4.80;;;3.70;99.90;;;;;;5069339;28;20419;-76
2024/01/17 00:24:53;;;;;;;7.10;5.00;;;3.80;99.90;;;;;;5052829;28;20040;-77
2024/01/17 00:27:23;;;;;;;8.50;4.68;;;4.10;99.90;;;;;;5052972;28;20572;-76
2024/01/17 00:29:56;;;;;;;6.68;4.30;;;3.70;99.90;;;;;;5052888;28;20090;-75
2024/01/17 00:32:23;;;;;;;9.02;4.80;;;3.70;99.90;;;;;;5053118;28;20484;-78
2024/01/17 00:34:48;;;;;;;7.47;4.70;;;4.00;99.90;;;;;;5069107;28;20057;-74
2024/01/17 00:37:14;;;;;;;9.05;4.85;;;4.50;99.90;;;;;;5052640;28;20037;-74
2024/01/17 00:39:40;;;;;;;6.25;4.38;;;3.60;99.90;;;;;;5052626;28;20135;-74
2024/01/17 00:42:06;;;;;;;7.57;4.28;;;4.00;99.90;;;;;;5067470;28;20044;-75
2024/01/17 00:44:32;;;;;;;12.95;4.93;;;4.10;99.90;;;;;;5053007;28;20440;-74
2024/01/17 00:46:58;;;;;;;6.50;4.70;;;4.00;99.90;;;;;;5052186;28;20043;-79
2024/01/17 00:49:23;;;;;;;6.85;5.30;;;4.00;99.90;;;;;;5036479;28;20127;-77
2024/01/17 00:51:49;;;;;;;7.85;4.95;;;3.90;99.90;;;;;;5050666;28;20078;-76
2024/01/17 00:54:15;;;;;;;8.50;4.45;;;4.20;99.90;;;;;;5051842;28;20040;-78
2024/01/17 00:56:40;;;;;;;7.60;5.22;;;4.00;99.90;;;;;;5052240;28;20086;-77
2024/01/17 00:59:06;;;;;;;6.93;4.90;;;3.70;99.90;;;;;;5051277;28;20036;-77
2024/01/17 01:01:32;;;;;;;7.30;4.55;;;3.70;99.90;;;;;;5069315;28;20052;-78
2024/01/17 01:03:58;;;;;;;7.07;5.68;;;4.60;99.30;;;;;;5051310;28;20436;-75
2024/01/17 01:06:25;;;;;;;10.48;5.15;;;4.10;99.90;;;;;;5052277;28;20040;-77
2024/01/17 01:08:51;;;;;;;8.07;5.05;;;3.90;96.50;;;;;;5067850;28;20099;-75
2024/01/17 01:11:16;;;;;;;6.95;4.72;;;3.70;99.90;;;;;;5051815;28;20052;-78
2024/01/17 01:13:42;;;;;;;8.48;5.07;;;4.50;99.90;;;;;;5051019;28;20400;-76
2024/01/17 01:16:10;;;;;;;8.60;4.80;;;4.10;99.90;;;;;;5067692;28;20043;-74
2024/01/17 01:18:36;;;;;;;6.57;4.60;;;4.30;97.50;;;;;;5068608;28;20496;-76
2024/01/17 01:21:02;;;;;;;7.30;4.63;;;4.10;86.50;;;;;;5052518;28;20389;-75
2024/01/17 01:23:28;;;;;;;7.72;4.60;;;3.80;81.50;;;;;;5069499;28;20079;-77
2024/01/17 01:25:53;;;;;;;9.15;5.30;;;3.90;78.80;;;;;;5035749;28;20036;-75
2024/01/17 01:28:19;;;;;;;10.55;5.28;;;3.80;90.30;;;;;;5066668;28;20392;-75
2024/01/17 01:30:45;;;;;;;9.60;5.60;;;3.90;97.70;;;;;;5069591;28;20086;-76
2024/01/17 01:33:11;;;;;;;7.95;5.80;;;4.20;97.50;;;;;;5069155;28;20080;-75
2024/01/17 01:35:37;;;;;;;8.40;5.50;;;3.90;99.90;;;;;;5052660;28;20072;-75
2024/01/17 01:38:02;;;;;;;9.88;5.85;;;4.00;99.90;;;;;;5050990;28;20115;-79
2024/01/17 01:40:28;;;;;;;9.55;6.22;;;3.70;99.90;;;;;;5031922;28;20362;-78
2024/01/17 01:42:58;;;;;;;9.13;6.50;;;4.10;99.90;;;;;;5069290;28;20562;-82
2024/01/17 01:45:24;;;;;;;12.90;6.50;;;3.60;99.90;;;;;;5067727;28;20076;-78
2024/01/17 01:47:50;;;;;;;11.20;6.53;;;3.60;99.90;;;;;;5052400;28;20039;-78
2024/01/17 01:50:16;;;;;;;14.00;7.05;;;3.90;99.90;;;;;;5065705;28;20032;-73
2024/01/17 01:52:45;;;;;;;10.32;6.43;;;5.00;99.90;;;;;;5035247;28;20083;-74
2024/01/17 01:55:11;;;;;;;9.98;6.50;;;4.70;99.90;;;;;;5050177;28;20086;-74
2024/01/17 01:57:46;;;;;;;10.52;6.80;;;4.10;99.90;;;;;;5034418;28;20040;-76
2024/01/17 02:00:13;;;;;;;12.23;7.47;;;3.60;99.90;;;;;;5067410;28;20123;-76
2024/01/17 02:02:39;;;;;;;10.63;7.32;;;3.90;99.90;;;;;;5068265;28;20459;-79
2024/01/17 02:05:05;;;;;;;13.93;8.25;;;5.00;99.90;;;;;;5067022;28;20040;-80
2024/01/17 02:07:33;;;;;;;11.40;7.40;;;3.70;99.90;;;;;;5051225;28;20040;-75
2024/01/17 02:10:01;;;;;;;9.82;8.18;;;3.60;99.90;;;;;;5069100;28;20043;-75
2024/01/17 02:12:27;;;;;;;10.77;7.43;;;3.90;99.90;;;;;;5049703;28;20066;-75
2024/01/17 02:14:53;;;;;;;11.50;9.02;;;4.00;99.90;;;;;;5051329;28;20396;-74
2024/01/17 02:17:19;;;;;;;12.45;8.20;;;3.60;99.90;;;;;;5066927;28;20044;-75
2024/01/17 02:19:44;;;;;;;13.50;8.65;;;3.80;99.90;;;;;;5068973;28;20546;-78
2024/01/17 02:22:10;;;;;;;14.05;8.32;;;4.00;99.90;;;;;;5066285;28;20052;-78
2024/01/17 02:24:36;;;;;;;13.27;9.07;;;4.00;99.90;;;;;;5050727;28;20373;-78
2024/01/17 02:27:02;;;;;;;10.43;8.30;;;4.00;99.90;;;;;;5051335;28;20393;-76
2024/01/17 02:29:28;;;;;;;12.40;8.50;;;3.60;99.90;;;;;;5048681;28;20064;-79
2024/01/17 02:31:56;;;;;;;13.25;8.98;;;3.90;99.90;;;;;;5067132;28;20032;-74
2024/01/17 02:34:22;;;;;;;13.18;9.35;;;3.70;99.90;;;;;;5061830;28;20093;-75
2024/01/17 02:36:47;;;;;;;12.90;9.00;;;3.60;99.90;;;;;;5051251;28;20488;-78
2024/01/17 02:39:15;;;;;;;12.88;9.63;;;3.90;99.90;;;;;;5051910;28;20089;-75
2024/01/17 02:41:44;;;;;;;15.48;9.27;;;3.80;99.90;;;;;;5064097;28;20048;-78
2024/01/17 02:44:10;;;;;;;10.68;9.07;;;3.90;99.90;;;;;;5068651;28;20618;-78
2024/01/17 02:46:36;;;;;;;10.75;8.85;;;3.80;99.90;;;;;;5068725;28;20041;-79
2024/01/17 02:49:02;;;;;;;13.82;9.60;;;3.60;99.90;;;;;;5033147;28;20041;-77
2024/01/17 02:51:28;;;;;;;15.20;10.02;;;4.20;99.90;;;;;;5033238;28;20052;-78
2024/01/17 02:53:54;;;;;;;11.40;9.63;;;3.60;99.90;;;;;;5066288;28;20032;-76
2024/01/17 02:56:19;;;;;;;12.55;9.10;;;3.60;99.90;;;;;;5066145;28;20056;-78
2024/01/17 02:58:45;;;;;;;15.10;9.98;;;3.80;99.90;;;;;;5067485;28;20048;-79
2024/01/17 03:01:13;;;;;;;14.85;9.48;;;3.60;99.90;;;;;;5050383;28;20060;-77
2024/01/17 03:03:40;;;;;;;13.70;9.15;;;4.20;99.90;;;;;;5066755;28;20089;-77
2024/01/17 03:06:06;;;;;;;13.80;9.85;;;3.80;99.90;;;;;;5049168;28;20051;-77
2024/01/17 03:08:31;;;;;;;15.45;10.43;;;3.80;99.90;;;;;;5067484;28;20052;-76
2024/01/17 03:10:57;;;;;;;15.73;9.35;;;3.50;99.90;;;;;;5050001;28;20064;-74
2024/01/17 03:13:23;;;;;;;15.23;10.68;;;3.50;99.90;;;;;;5034184;28;20052;-77
2024/01/17 03:15:48;;;;;;;12.98;9.48;;;3.80;99.90;;;;;;5048465;28;20501;-78
2024/01/17 03:18:16;;;;;;;13.63;10.30;;;3.70;99.90;;;;;;5049865;28;20044;-79
2024/01/17 03:20:42;;;;;;;12.48;9.50;;;3.90;99.90;;;;;;5050512;28;20040;-74
2024/01/17 03:23:07;;;;;;;13.52;10.80;;;3.60;99.90;;;;;;5050961;28;20048;-79
2024/01/17 03:25:33;;;;;;;14.23;10.25;;;3.80;99.90;;;;;;5049137;28;20044;-78
2024/01/17 03:27:59;;;;;;;13.05;10.00;;;3.70;99.90;;;;;;5033206;28;20082;-80
2024/01/17 03:30:24;;;;;;;16.25;10.95;;;3.60;99.90;;;;;;5034184;28;20040;-74
2024/01/17 03:32:50;;;;;;;13.00;9.93;;;3.40;99.90;;;;;;5033973;28;20477;-77
2024/01/17 03:35:16;;;;;;;12.63;10.85;;;3.40;99.90;;;;;;5021524;28;20080;-79
2024/01/17 03:37:41;;;;;;;15.48;10.63;;;3.40;99.90;;;;;;5053610;28;20412;-80
2024/01/17 03:40:07;;;;;;;13.05;10.55;;;3.60;99.90;;;;;;5064550;28;20389;-79
2024/01/17 03:42:33;;;;;;;12.23;10.43;;;3.60;99.90;;;;;;5053002;28;20044;-80
2024/01/17 03:44:59;;;;;;;13.48;10.80;;;3.30;99.90;;;;;;5070634;28;20514;-82
2024/01/17 03:47:24;;;;;;;15.95;10.80;;;3.60;99.90;;;;;;5068296;28;20029;-80
2024/01/17 03:49:50;;;;;;;14.75;11.32;;;3.30;99.90;;;;;;5070609;28;20036;-77
2024/01/17 03:52:16;;;;;;;13.85;10.88;;;3.70;99.90;;;;;;5069330;28;20098;-76
2024/01/17 03:54:42;;;;;;;15.80;11.73;;;4.20;99.90;;;;;;5072781;28;20052;-76
2024/01/17 03:57:08;;;;;;;14.70;11.70;;;3.40;99.90;;;;;;5053515;28;20043;-76
2024/01/17 03:59:34;;;;;;;14.55;11.05;;;3.50;99.90;;;;;;5069468;28;20040;-81
2024/01/17 04:02:00;;;;;;;15.43;11.48;;;3.60;99.90;;;;;;5052464;28;20052;-76
2024/01/17 04:04:26;;;;;;;14.38;11.25;;;3.50;99.90;;;;;;5054081;28;20560;-79
2024/01/17 04:06:53;;;;;;;15.38;11.52;;;3.60;99.90;;;;;;5019923;28;20048;-75
2024/01/17 04:09:19;;;;;;;13.63;10.98;;;3.30;99.90;;;;;;5050685;28;20441;-76
2024/01/17 04:11:45;;;;;;;13.73;10.52;;;3.30;99.90;;;;;;5035806;28;20045;-78
2024/01/17 04:14:12;;;;;;;16.77;11.95;;;3.30;99.90;;;;;;5051681;28;20094;-81
2024/01/17 04:16:39;;;;;;;13.23;11.35;;;3.60;99.90;;;;;;5070527;28;20047;-77
2024/01/17 04:19:06;;;;;;;17.90;12.98;;;3.20;99.90;;;;;;5068868;28;20550;-78
2024/01/17 04:21:31;;;;;;;15.98;12.00;;;3.60;99.90;;;;;;5035976;28;20591;-74
2024/01/17 04:23:57;;;;;;;17.42;12.35;;;3.30;99.90;;;;;;5069702;28;20047;-82
2024/01/17 04:26:24;;;;;;;16.17;11.57;;;3.40;99.90;;;;;;5053403;28;20071;-77
2024/01/17 04:28:51;;;;;;;17.08;11.63;;;3.20;99.90;;;;;;5052471;28;20373;-81
2024/01/17 04:31:29;;;;;;;16.33;12.25;;;3.60;99.90;;;;;;5052708;28;20032;-79
2024/01/17 04:33:56;;;;;;;14.32;11.13;;;3.50;99.90;;;;;;5053566;28;20044;-78
2024/01/17 04:36:24;;;;;;;17.27;12.50;;;3.40;99.90;;;;;;5069991;28;20044;-77
2024/01/17 04:38:49;;;;;;;17.15;12.30;;;3.80;99.90;;;;;;5069648;28;20048;-74
2024/01/17 04:41:16;;;;;;;15.20;11.80;;;3.20;99.90;;;;;;5051533;28;20090;-76
2024/01/17 04:43:44;;;;;;;15.52;12.48;;;3.40;99.90;;;;;;5052123;28;20048;-80
2024/01/17 04:46:14;;;;;;;19.02;12.88;;;3.80;99.90;;;;;;5053037;28;20073;-77
2024/01/17 04:48:41;;;;;;;17.95;11.90;;;3.20;99.90;;;;;;5052856;28;20043;-82
2024/01/17 04:51:07;;;;;;;16.45;12.43;;;3.50;99.90;;;;;;5068781;28;20036;-76
2024/01/17 04:53:33;;;;;;;16.48;12.55;;;3.40;99.90;;;;;;5069897;28;20836;-79
2024/01/17 04:55:59;;;;;;;18.30;12.55;;;3.50;99.90;;;;;;5051966;28;20080;-81
2024/01/17 04:58:26;;;;;;;17.05;12.32;;;3.50;99.90;;;;;;5052062;28;20587;-78
2024/01/17 05:00:53;;;;;;;16.75;12.52;;;3.40;99.90;;;;;;5051804;28;20515;-76
2024/01/17 05:03:19;;;;;;;21.92;18.83;;;3.40;99.90;;;;;;5052266;28;20048;-76
2024/01/17 05:05:44;;;;;;;16.63;12.95;;;3.20;99.90;;;;;;5068871;28;20101;-78
2024/01/17 05:08:11;;;;;;;18.15;12.85;;;3.20;99.90;;;;;;5053396;28;20036;-79
2024/01/17 05:10:37;;;;;;;15.43;12.68;;;3.40;99.90;;;;;;5052001;28;20053;-79
2024/01/17 05:13:03;;;;;;;18.67;12.35;;;3.10;99.90;;;;;;5050673;28;20100;-77
2024/01/17 05:15:28;;;;;;;17.10;12.98;;;3.40;99.90;;;;;;5052034;28;20456;-77
2024/01/17 05:17:54;;;;;;;18.00;12.65;;;4.10;99.90;;;;;;5070037;28;20083;-74
2024/01/17 05:20:20;;;;;;;16.55;13.02;;;3.30;99.90;;;;;;5035189;28;20045;-78
2024/01/17 05:22:46;;;;;;;17.45;13.23;;;3.30;99.90;;;;;;5051054;28;20037;-78
2024/01/17 05:25:11;;;;;;;20.00;12.50;;;3.40;99.90;;;;;;5051733;28;20040;-77
2024/01/17 05:27:40;;;;;;;18.38;13.18;;;3.30;99.90;;;;;;5051203;28;20093;-79
2024/01/17 05:30:09;;;;;;;17.13;12.27;;;3.40;99.90;;;;;;5019148;28;20447;-77
2024/01/17 05:32:37;;;;;;;15.93;13.13;;;3.20;99.90;;;;;;5050730;28;20119;-78
2024/01/17 05:35:04;;;;;;;18.58;13.15;;;3.40;99.90;;;;;;5066738;28;20500;-78
2024/01/17 05:37:30;;;;;;;17.38;13.07;;;3.40;99.90;;;;;;5035828;28;20033;-80
2024/01/17 05:39:55;;;;;;;17.60;12.88;;;3.00;99.90;;;;;;5022988;28;20045;-76
2024/01/17 05:42:21;;;;;;;18.10;12.70;;;3.30;99.90;;;;;;5049541;28;20048;-80
2024/01/17 05:44:47;;;;;;;16.33;12.20;;;3.40;99.90;;;;;;5052489;28;20428;-78
2024/01/17 05:47:14;;;;;;;17.08;12.27;;;3.20;99.90;;;;;;5052030;28;20408;-77
2024/01/17 05:49:39;;;;;;;15.52;12.05;;;3.00;99.90;;;;;;5062515;28;20043;-78
2024/01/17 05:52:05;;;;;;;14.52;12.35;;;3.70;99.90;;;;;;5032203;28;20041;-75
2024/01/17 05:54:31;;;;;;;16.42;12.13;;;3.20;99.90;;;;;;5082308;28;20041;-77
2024/01/17 05:56:56;;;;;;;16.65;12.43;;;3.00;99.90;;;;;;5060704;28;20128;-80
2024/01/17 05:59:22;;;;;;;17.92;12.32;;;3.30;99.90;;;;;;5051168;28;20042;-77
2024/01/17 06:01:48;;;;;;;17.13;12.38;;;3.40;99.90;;;;;;5051623;28;20040;-77
2024/01/17 06:04:13;;;;;;;16.77;12.38;;;2.90;99.90;;;;;;5051284;28;20048;-77
2024/01/17 06:06:39;;;;;;;18.40;12.75;;;3.30;99.90;;;;;;5050218;28;20029;-79
2024/01/17 06:09:07;;;;;;;17.98;12.70;;;3.20;99.90;;;;;;5051813;28;20048;-77
2024/01/17 06:11:33;;;;;;;14.27;12.27;;;3.40;99.90;;;;;;5067270;28;20040;-75
2024/01/17 06:13:59;;;;;;;19.73;12.98;;;2.80;99.90;;;;;;5033775;28;20052;-83
2024/01/17 06:16:25;;;;;;;16.02;11.73;;;3.20;99.90;;;;;;5049449;28;20052;-78
2024/01/17 06:18:51;;;;;;;16.90;12.95;;;3.10;99.90;;;;;;5068151;28;20064;-77
2024/01/17 06:21:17;;;;;;;15.90;12.60;;;4.10;99.90;;;;;;5067065;28;20087;-76
2024/01/17 06:23:44;;;;;;;15.93;13.13;;;2.90;99.90;;;;;;5065924;28;20180;-80
2024/01/17 06:26:09;;;;;;;17.15;12.77;;;2.70;99.90;;;;;;5050597;28;20512;-80
2024/01/17 06:28:35;;;;;;;17.42;12.85;;;2.70;99.90;;;;;;5024475;28;20071;-76
2024/01/17 06:31:03;;;;;;;19.00;12.95;;;2.90;99.90;;;;;;5050593;28;20078;-77
2024/01/17 06:33:29;;;;;;;16.17;13.38;;;3.00;99.90;;;;;;5048556;28;20123;-77
2024/01/17 06:35:56;;;;;;;16.63;12.30;;;2.90;99.90;;;;;;5029634;28;20124;-78
2024/01/17 06:38:22;;;;;;;17.10;12.43;;;3.10;99.90;;;;;;5031431;28;20032;-77
2024/01/17 06:40:48;;;;;;;17.13;12.88;;;2.80;99.90;;;;;;5047903;28;20032;-79
2024/01/17 06:43:13;;;;;;;15.90;12.15;;;2.90;99.90;;;;;;5066022;28;20575;-77
2024/01/17 06:45:39;;;;;;;17.02;12.75;;;2.60;99.90;;;;;;5032783;28;20123;-76
2024/01/17 06:48:05;;;;;;;17.40;13.43;;;3.20;99.90;;;;;;5068371;28;20032;-76
2024/01/17 06:50:30;;;;;;;15.50;12.82;;;3.00;99.90;;;;;;5068585;28;20041;-76
2024/01/17 06:52:56;;;;;;;19.00;13.23;;;2.80;99.90;;;;;;5050870;28;20086;-77
2024/01/17 06:55:22;;;;;;;17.98;12.50;;;3.10;99.90;;;;;;5050682;28;20037;-76
2024/01/17 06:57:48;;;;;;;19.65;13.43;;;2.60;99.90;;;;;;5049187;28;20085;-76
2024/01/17 07:00:14;;;;;;;19.92;12.27;;;2.60;99.90;;;;;;5025563;28;20529;-79
2024/01/17 07:02:40;;;;;;;15.20;11.95;;;3.00;99.90;;;;;;5047165;28;20036;-76
2024/01/17 07:05:06;;;;;;;15.90;11.90;;;3.00;99.90;;;;;;5051312;28;20384;-77
2024/01/17 07:07:31;;;;;;;15.30;12.18;;;3.00;99.90;;;;;;5034132;28;20052;-75
2024/01/17 07:09:57;;;;;;;16.40;12.48;;;2.80;99.90;;;;;;5030666;28;20051;-77
2024/01/17 07:12:23;;;;;;;15.20;11.60;;;4.30;99.90;;;;;;5069766;28;20124;-78
2024/01/17 07:14:49;;;;;;;18.33;11.73;;;3.20;99.90;;;;;;5066500;28;20076;-78
2024/01/17 07:17:15;;;;;;;16.45;11.77;;;3.00;99.90;;;;;;5048493;28;20040;-78
2024/01/17 07:19:41;;;;;;;15.82;11.95;;;2.70;99.90;;;;;;5064170;28;20074;-77
2024/01/17 07:22:07;;;;;;;16.20;12.10;;;3.00;99.90;;;;;;5049152;28;20036;-76
2024/01/17 07:24:33;;;;;;;13.45;11.13;;;3.40;99.90;;;;;;5052458;28;20140;-77
2024/01/17 07:26:59;;;;;;;15.32;11.13;;;2.70;99.90;;;;;;5067670;28;20159;-74
2024/01/17 07:29:24;;;;;;;17.00;11.85;;;2.70;99.90;;;;;;5047691;28;20461;-77
2024/01/17 07:31:50;;;;;;;17.27;12.50;;;3.00;99.90;;;;;;5046190;28;20040;-79
2024/01/17 07:34:16;;;;;;;15.68;12.05;;;2.90;99.90;;;;;;5037485;28;20097;-77
2024/01/17 07:36:42;;;;;;;14.07;11.43;;;2.80;99.90;;;;;;5052446;28;20056;-76
2024/01/17 07:39:10;;;;;;;16.42;12.07;;;2.50;99.90;;;;;;5046252;28;20123;-76
2024/01/17 07:41:36;;;;;;;15.38;12.00;;;3.00;99.90;;;;;;5080948;28;20443;-78
2024/01/17 07:44:02;;;;;;;14.75;11.25;;;3.40;99.90;;;;;;5053524;28;20045;-80
2024/01/17 07:46:28;;;;;;;15.43;11.63;;;2.90;99.90;;;;;;5029499;28;20036;-76
2024/01/17 07:48:54;;;;;;;18.02;11.85;;;2.70;99.90;;;;;;5063365;28;20393;-77
2024/01/17 07:51:19;;;;;;;16.02;11.30;;;2.80;99.90;;;;;;5063312;28;20105;-77
2024/01/17 07:53:45;;;;;;;15.60;11.55;;;3.00;99.90;;;;;;5046483;28;20048;-76
2024/01/17 07:56:11;;;;;;;13.80;10.77;;;2.70;99.90;;;;;;5065071;28;21944;-78
2024/01/17 07:58:36;;;;;;;14.25;11.35;;;2.70;99.90;;;;;;5033505;28;20454;-77
2024/01/17 08:01:02;;;;;;;15.27;11.48;;;2.80;99.90;;;;;;5046734;28;20040;-76
2024/01/17 08:03:28;;;;;;;15.25;11.52;;;2.80;99.90;;;;;;5062880;28;20072;-77
2024/01/17 08:05:54;;;;;;;14.52;11.60;;;2.70;99.90;;;;;;5046960;28;20093;-75
2024/01/17 08:08:19;;;;;;;16.05;12.30;;;3.60;99.90;;;;;;5046917;28;20166;-78
2024/01/17 08:10:45;;;;;;;14.43;11.18;;;2.40;99.90;;;;;;5029296;28;20059;-78
2024/01/17 08:13:11;;;;;;;15.02;11.98;;;2.40;99.90;;;;;;5063319;28;20125;-80
2024/01/17 08:15:37;;;;;;;19.73;12.75;;;2.40;99.90;;;;;;5029899;28;20135;-78
2024/01/17 08:18:03;;;;;;;19.15;12.02;;;3.20;99.90;;;;;;5049189;28;20685;-78
2024/01/17 08:20:29;;;;;;;17.42;13.48;;;2.70;99.90;;;;;;5045462;28;20052;-78
2024/01/17 08:22:55;;;;;;;15.23;12.30;;;3.60;99.90;;;;;;5034034;28;20052;-75
2024/01/17 08:25:21;;;;;;;15.70;11.50;;;2.50;99.90;;;;;;5053349;28;20049;-77
2024/01/17 08:27:46;;;;;;;14.98;11.60;;;2.50;99.90;;;;;;5054601;28;20032;-80
2024/01/17 08:30:14;;;;;;;13.68;11.63;;;2.80;99.90;;;;;;5045583;28;20044;-76
2024/01/17 08:32:40;;;;;;;14.73;11.35;;;2.40;99.90;;;;;;5063208;28;20036;-76
2024/01/17 08:35:06;;;;;;;16.67;12.35;;;2.50;99.90;;;;;;5070564;28;20036;-79
2024/01/17 08:37:34;;;;;;;13.65;10.65;;;2.70;99.90;;;;;;5049846;28;20047;-81
2024/01/17 08:39:59;;;;;;;17.05;12.27;;;2.70;99.90;;;;;;5065920;28;20044;-77
2024/01/17 08:42:25;;;;;;;16.17;11.70;;;2.40;99.90;;;;;;5044509;28;20051;-78
2024/01/17 08:44:51;;;;;;;14.80;11.43;;;2.70;99.90;;;;;;5044651;28;20454;-77
2024/01/17 08:47:17;;;;;;;15.68;11.73;;;2.90;99.90;;;;;;5066037;28;20575;-78
2024/01/17 08:49:43;;;;;;;16.83;11.07;;;2.50;99.90;;;;;;5047690;28;20048;-71
2024/01/17 08:52:09;;;;;;;16.27;11.65;;;3.50;99.90;;;;;;5045794;28;20044;-80
2024/01/17 08:54:34;;;;;;;15.48;11.60;;;2.70;99.90;;;;;;5045399;28;20052;-76
2024/01/17 08:57:01;;;;;;;13.80;10.60;;;3.10;99.90;;;;;;5046172;28;20106;-78
2024/01/17 08:59:28;;;;;;;14.60;11.20;;;2.80;99.90;;;;;;5050254;28;20093;-78
2024/01/17 09:01:57;;;;;;;12.50;10.13;;;2.50;99.90;;;;;;5066577;28;20056;-80
2024/01/17 09:04:23;;;;;;;16.20;10.70;;;2.60;99.90;;;;;;5036068;28;20051;-80
2024/01/17 09:06:50;;;;;;;11.45;10.23;;;2.60;99.90;;;;;;5049301;28;20060;-77
2024/01/17 09:09:15;;;;;;;16.70;10.48;;;2.80;99.90;;;;;;5036143;28;20040;-77
2024/01/17 09:11:41;;;;;;;14.00;10.10;;;2.80;99.90;;;;;;5051050;28;20045;-78
2024/01/17 09:14:07;;;;;;;14.32;10.55;;;2.70;99.90;;;;;;5051895;28;20040;-78
2024/01/17 09:16:33;;;;;;;13.43;10.38;;;2.70;99.90;;;;;;5086423;28;20044;-78
2024/01/17 09:18:59;;;;;;;12.15;10.10;;;3.30;99.90;;;;;;5050724;28;20036;-79
2024/01/17 09:21:25;;;;;;;15.30;9.13;;;3.10;99.90;;;;;;5048557;28;20384;-78
2024/01/17 09:23:51;;;;;;;13.30;10.65;;;2.80;99.90;;;;;;5085625;28;20130;-77
2024/01/17 09:26:17;;;;;;;13.40;9.88;;;3.40;99.90;;;;;;5033658;28;20032;-77
2024/01/17 09:28:42;;;;;;;14.65;10.13;;;3.00;99.90;;;;;;5014734;28;20040;-78
2024/01/17 09:31:08;;;;;;;12.80;9.43;;;3.00;99.90;;;;;;5049120;28;20059;-79
2024/01/17 09:33:35;;;;;;;13.85;9.77;;;2.90;99.90;;;;;;5050597;28;20037;-77
2024/01/17 09:36:01;;;;;;;12.13;10.27;;;3.10;99.90;;;;;;5051456;28;20047;-79
2024/01/17 09:38:27;;;;;;;11.50;9.65;;;2.90;99.90;;;;;;5050893;28;20040;-77
2024/01/17 09:40:53;;;;;;;14.68;10.20;;;3.20;99.90;;;;;;5067643;28;20496;-75
2024/01/17 09:43:19;;;;;;;12.60;10.10;;;3.00;99.90;;;;;;5067744;28;20040;-78
2024/01/17 09:45:46;;;;;;;12.80;10.57;;;2.90;99.90;;;;;;5050831;28;20045;-81
2024/01/17 09:48:14;;;;;;;13.23;10.30;;;3.10;99.90;;;;;;5034836;28;20037;-76
2024/01/17 09:50:40;;;;;;;12.93;10.60;;;2.90;99.90;;;;;;5050694;28;20037;-78
2024/01/17 09:53:14;;;;;;;12.38;10.85;;;2.90;99.90;;;;;;5051404;28;20037;-76
2024/01/17 09:55:41;;;;;;;13.73;9.88;;;2.90;99.90;;;;;;5050711;28;20044;-77
2024/01/17 09:58:09;;;;;;;15.75;10.63;;;2.90;99.90;;;;;;5051713;28;20050;-75
2024/01/17 10:00:36;;;;;;;16.17;10.55;;;3.30;99.90;;;;;;5050630;28;20488;-75
2024/01/17 10:03:04;;;;;;;15.18;10.50;;;3.00;99.90;;;;;;5051438;28;20424;-78
2024/01/17 10:05:32;;;;;;;15.13;10.40;;;3.00;99.90;;;;;;5067439;28;20055;-79
2024/01/17 10:07:59;;;;;;;14.05;10.20;;;3.20;99.90;;;;;;5067434;28;20047;-76
2024/01/17 10:10:25;;;;;;;14.60;10.45;;;3.00;99.90;;;;;;5067182;28;20048;-76
2024/01/17 10:12:54;;;;;;;14.90;10.60;;;3.30;99.90;;;;;;5049779;28;20055;-77
2024/01/17 10:15:23;;;;;;;12.95;10.30;;;3.10;99.90;;;;;;5050892;28;20418;-78
2024/01/17 10:17:49;;;;;;;13.30;10.07;;;3.90;99.90;;;;;;5067190;28;20041;-77
2024/01/17 10:20:16;;;;;;;14.25;9.90;;;3.30;99.90;;;;;;5068063;28;20036;-78
2024/01/17 10:22:45;;;;;;;12.70;9.63;;;3.20;99.90;;;;;;5049756;28;20090;-79
2024/01/17 10:25:12;;;;;;;13.43;10.18;;;3.50;99.90;;;;;;5050974;28;20052;-76
2024/01/17 10:27:37;;;;;;;13.75;10.15;;;3.60;99.90;;;;;;5076985;28;20634;-75
2024/01/17 10:30:04;;;;;;;15.25;10.15;;;3.30;99.90;;;;;;5050998;28;20036;-76
2024/01/17 10:32:31;;;;;;;13.50;10.07;;;3.30;99.90;;;;;;5050240;28;20044;-78
2024/01/17 10:34:58;;;;;;;13.88;9.88;;;3.30;99.90;;;;;;5051228;28;20067;-74
2024/01/17 10:37:25;;;;;;;14.40;9.88;;;3.30;99.90;;;;;;5050740;28;20054;-77
2024/01/17 10:40:13;;;;;;;13.98;10.35;;;3.50;99.90;;;;;;5067258;28;20075;-73
2024/01/17 10:42:40;;;;;;;12.57;9.93;;;3.30;99.90;;;;;;5063388;28;20048;-75
2024/01/17 10:45:08;;;;;;;13.57;9.73;;;4.10;99.90;;;;;;5050424;28;20051;-74
2024/01/17 10:47:34;;;;;;;13.55;9.57;;;3.40;99.90;;;;;;5050070;28;20040;-77
2024/01/17 10:50:00;;;;;;;15.13;9.98;;;3.30;99.90;;;;;;5050522;28;20041;-74
2024/01/17 10:52:30;;;;;;;11.50;9.40;;;3.50;99.90;;;;;;5051491;28;20051;-74
2024/01/17 10:55:05;;;;;;;13.48;9.93;;;3.30;99.90;;;;;;5050802;28;20080;-77
2024/01/17 10:57:33;;;;;;;11.68;9.85;;;3.40;99.90;;;;;;5050040;28;20048;-72
2024/01/17 11:00:03;;;;;;;15.25;9.98;;;3.70;99.90;;;;;;5063092;28;20037;-76
2024/01/17 11:02:31;;;;;;;14.70;9.90;;;3.70;99.90;;;;;;5066634;28;20486;-75
2024/01/17 11:05:06;;;;;;;14.27;9.50;;;3.60;93.40;;;;;;5065852;28;20512;-79
2024/01/17 11:07:33;;;;;;;15.07;9.90;;;3.60;98.20;;;;;;5048839;28;20032;-77
2024/01/17 11:10:05;;;;;;;12.65;9.85;;;3.80;65.30;;;;;;5050018;28;20067;-75
2024/01/17 11:12:33;;;;;;;11.93;8.93;;;3.70;46.70;;;;;;5066506;28;20049;-77
2024/01/17 11:15:06;;;;;;;13.63;9.35;;;3.70;52.90;;;;;;5067067;28;20435;-77
2024/01/17 11:17:37;;;;;;;12.93;8.23;;;3.70;49.40;;;;;;5040796;28;20476;-74
2024/01/17 11:20:14;;;;;;;11.98;8.95;;;4.00;46.20;;;;;;5047259;28;20151;-73
2024/01/17 11:22:40;;;;;;;10.50;8.77;;;3.80;46.60;;;;;;5065272;28;20370;-77
2024/01/17 11:25:16;;;;;;;12.65;8.38;;;3.80;33.40;;;;;;5056663;28;20059;-77
2024/01/17 11:28:04;;;;;;;11.38;9.05;;;3.90;34.40;;;;;;5066019;28;20044;-75
2024/01/17 11:31:05;;;;;;;13.52;9.23;;;3.90;39.50;;;;;;5066610;28;20384;-73
2024/01/17 11:33:32;;;;;;;12.43;8.60;;;3.80;35.50;;;;;;5051069;28;20036;-73
2024/01/17 11:35:59;;;;;;;13.82;9.25;;;3.60;37.20;;;;;;5054100;28;20119;-74
2024/01/17 11:38:24;;;;;;;11.35;8.93;;;3.80;43.40;;;;;;5049764;28;20119;-76
2024/01/17 11:40:51;;;;;;;13.82;9.23;;;3.90;41.40;;;;;;5066224;28;20864;-74
2024/01/17 11:43:20;;;;;;;11.70;8.38;;;3.70;39.30;;;;;;5066786;28;20043;-76
2024/01/17 11:45:53;;;;;;;11.55;8.85;;;3.80;50.30;;;;;;5063872;28;20040;-73
2024/01/17 11:48:27;;;;;;;13.07;8.63;;;3.70;37.30;;;;;;5066130;28;20043;-74
2024/01/17 11:51:14;;;;;;;11.75;8.65;;;4.20;35.30;;;;;;5063110;28;20064;-75
2024/01/17 11:53:50;;;;;;;11.18;9.70;;;3.40;59.10;;;;;;5064914;28;20068;-75
2024/01/17 11:56:20;;;;;;;11.60;9.70;;;3.60;61.60;;;;;;5079012;28;20516;-75
2024/01/17 11:59:12;;;;;;;12.77;9.93;;;3.60;75.40;;;;;;5069067;28;20036;-78
2024/01/17 12:01:43;;;;;;;12.00;9.10;;;3.70;81.40;;;;;;5066526;28;20049;-76
2024/01/17 12:04:16;;;;;;;12.75;9.57;;;3.70;90.70;;;;;;5070277;28;20064;-75
2024/01/17 12:06:52;;;;;;;10.82;9.05;;;3.50;99.90;;;;;;5067722;28;20086;-77
2024/01/17 12:09:18;;;;;;;13.48;9.55;;;3.60;99.90;;;;;;5055981;28;20536;-76
2024/01/17 12:11:47;;;;;;;15.50;9.10;;;3.80;99.90;;;;;;5069180;28;20049;-75
2024/01/17 12:14:17;;;;;;;14.48;9.73;;;3.60;99.90;;;;;;5052303;28;20048;-73
2024/01/17 12:16:45;;;;;;;13.93;10.30;;;3.70;99.90;;;;;;5055307;28;20040;-73
2024/01/17 12:19:11;;;;;;;16.25;12.80;;;3.70;99.90;;;;;;5070157;28;20047;-74
2024/01/17 12:21:37;;;;;;;15.82;11.63;;;3.70;99.90;;;;;;5051517;28;20045;-74
2024/01/17 12:24:04;;;;;;;14.95;10.80;;;3.60;99.90;;;;;;5076423;28;20041;-77
2024/01/17 12:26:34;;;;;;;13.43;10.57;;;3.60;99.90;;;;;;5039612;28;20554;-74
2024/01/17 12:29:13;;;;;;;12.32;10.25;;;3.80;99.90;;;;;;5067888;28;20067;-74
2024/01/17 12:31:39;;;;;;;14.55;10.85;;;3.60;99.90;;;;;;5060370;28;20083;-74
2024/01/17 12:34:06;;;;;;;12.13;10.63;;;3.80;99.90;;;;;;5052395;28;20143;-71
2024/01/17 12:36:32;;;;;;;14.65;10.65;;;3.50;99.90;;;;;;5032792;28;20052;-75
2024/01/17 12:39:03;;;;;;;14.20;11.13;;;3.80;99.90;;;;;;5069771;28;20084;-72
2024/01/17 12:41:30;;;;;;;13.05;10.75;;;4.00;99.90;;;;;;5033154;28;20051;-76